Date,TemperatureHighF,TemperatureAvgF,TemperatureLowF,DewpointHighF,DewpointAvgF,DewpointLowF,HumidityHigh,HumidityAvg,HumidityLow,PressureMaxIn,PressureMinIn,WindSpeedMaxMPH,WindSpeedAvgMPH,GustSpeedMaxMPH,PrecipitationSumIn
2013-2-1,72,58,43,48,40,34,85,55,29,30.28,30.10,15,5,20,0.00
2013-2-2,76,60,44,59,49,41,92,69,46,30.18,30.08,13,2,16,0.00
2013-2-3,72,63,55,56,46,39,85,57,40,30.25,29.94,9,5,14,0.00
2013-2-4,78,65,56,62,57,51,94,79,52,29.94,29.70,12,3,15,0.00
2013-2-5,82,65,49,57,48,42,95,60,27,29.90,29.78,7,1,9,0.00
2013-2-6,74,65,60,63,60,56,95,83,64,29.90,29.75,10,3,12,0.00
2013-2-7,79,66,59,65,59,44,96,78,48,29.98,29.78,8,3,13,0.00
2013-2-8,70,63,55,50,40,36,65,44,29,30.09,29.98,11,3,18,0.00
2013-2-9,70,60,54,68,57,41,98,90,58,30.00,29.70,13,4,18,0.00
2013-2-10,70,66,60,68,47,33,96,56,28,29.93,29.67,11,4,20,0.00
2013-2-11,61,56,52,50,46,39,94,70,44,29.97,29.86,11,7,16,0.02
2013-2-12,75,61,51,58,46,28,97,67,24,29.95,29.73,10,4,15,0.00
2013-2-13,56,50,47,39,35,34,60,56,51,30.02,29.98,11,8,16,0.00
2013-2-14,70,62,51,44,41,39,69,47,37,29.99,29.93,9,4,12,0.00
2013-2-15,70,53,40,49,40,27,92,64,36,30.31,30.00,12,4,17,0.00
2013-2-16,67,51,34,34,28,24,72,44,28,30.42,30.16,10,3,13,0.00
2013-2-17,72,56,34,54,41,29,86,60,39,30.16,29.90,16,8,24,0.00
2013-2-18,81,68,61,63,53,32,88,63,32,29.96,29.75,14,7,18,0.00
2013-2-19,65,56,47,39,36,34,63,47,33,30.17,29.97,12,5,18,0.00
2013-2-20,69,61,54,66,54,33,93,79,38,30.02,29.57,13,7,20,0.00
2013-2-21,79,70,58,68,48,27,92,54,17,29.76,29.48,15,6,19,0.00
2013-2-22,59,53,50,41,35,28,69,50,32,29.93,29.77,9,4,16,0.00
2013-2-23,73,56,43,45,38,30,64,51,35,29.99,29.78,7,3,14,0.00
2013-2-24,69,58,41,60,51,38,94,78,64,29.83,29.52,12,4,17,0.00
2013-2-25,66,58,48,61,38,22,97,52,19,29.82,29.49,21,10,31,0.00
2013-2-26,67,54,42,34,30,28,58,42,26,29.91,29.78,12,5,16,0.00
2013-2-27,58,48,41,37,33,30,78,57,39,30.05,29.80,15,3,19,0.00